Time;durP1;ratioP1;P1;durP2;ratioP2;P2;SDS_P1;SDS_P2;PMS_P1;PMS_P2;Temp;Humidity;BMP_temperature;BMP_pressure;BME280_temperature;BME280_humidity;BME280_pressure;Samples;Min_cycle;Max_cycle;Signal;HPM_P1;HPM_P2
2022/05/04 00:01:08;;;;;;;15.52;6.65;;;2.40;90.60;;;;;;5081925;28;20012;-72
2022/05/04 00:03:39;;;;;;;26.80;7.32;;;2.30;90.40;;;;;;5088108;28;20466;-72
2022/05/04 00:06:05;;;;;;;18.00;7.05;;;2.30;90.60;;;;;;5087333;28;20035;-72
2022/05/04 00:08:31;;;;;;;14.43;6.78;;;2.30;90.70;;;;;;5088026;28;20081;-72
2022/05/04 00:10:56;;;;;;;16.17;7.03;;;2.20;90.80;;;;;;5086670;28;20036;-72
2022/05/04 00:13:22;;;;;;;13.57;6.15;;;2.20;90.80;;;;;;5069994;28;20100;-72
2022/05/04 00:15:47;;;;;;;18.90;7.25;;;2.20;90.90;;;;;;5085152;28;20032;-72
2022/05/04 00:18:13;;;;;;;17.30;7.65;;;2.20;90.90;;;;;;5088125;28;20613;-72
2022/05/04 00:20:38;;;;;;;20.23;6.97;;;2.20;91.10;;;;;;5091065;28;20020;-72
2022/05/04 00:23:04;;;;;;;19.50;7.75;;;2.10;91.10;;;;;;5087855;28;20024;-72
2022/05/04 00:25:29;;;;;;;13.90;6.32;;;2.10;91.00;;;;;;5087898;28;20035;-71
2022/05/04 00:27:55;;;;;;;20.00;7.53;;;2.10;91.00;;;;;;5087240;28;20036;-73
2022/05/04 00:30:20;;;;;;;14.02;7.28;;;2.10;91.00;;;;;;5089726;28;20059;-73
2022/05/04 00:32:47;;;;;;;10.38;6.25;;;2.10;91.00;;;;;;5088947;28;20041;-71
2022/05/04 00:35:12;;;;;;;18.75;7.15;;;2.10;91.00;;;;;;5088323;28;20024;-72
2022/05/04 00:37:38;;;;;;;18.48;8.18;;;2.10;91.00;;;;;;5089081;28;20782;-72
2022/05/04 00:40:04;;;;;;;20.48;8.10;;;2.10;91.20;;;;;;5090043;28;20039;-72
2022/05/04 00:42:29;;;;;;;18.67;7.63;;;2.10;91.30;;;;;;5068349;28;20045;-73
2022/05/04 00:44:55;;;;;;;21.35;7.70;;;2.10;91.40;;;;;;5070240;28;20466;-73
2022/05/04 00:47:21;;;;;;;17.73;7.50;;;2.00;91.40;;;;;;5051316;28;20097;-72
2022/05/04 00:49:48;;;;;;;22.88;7.63;;;2.00;91.40;;;;;;5069376;28;20032;-73
2022/05/04 00:52:14;;;;;;;25.40;8.38;;;2.00;91.30;;;;;;5068847;28;20517;-73
2022/05/04 00:54:46;;;;;;;19.75;8.60;;;2.00;91.40;;;;;;5071672;28;20020;-72
2022/05/04 00:57:14;;;;;;;18.88;8.32;;;2.10;91.60;;;;;;5068221;28;20029;-72
2022/05/04 00:59:39;;;;;;;19.23;8.27;;;2.10;91.80;;;;;;5054228;28;20029;-72
2022/05/04 01:02:05;;;;;;;19.55;8.55;;;2.10;91.90;;;;;;5069021;28;20047;-73
2022/05/04 01:04:31;;;;;;;21.65;7.85;;;2.10;92.00;;;;;;5072410;28;20095;-73
2022/05/04 01:06:56;;;;;;;22.08;8.80;;;2.00;92.00;;;;;;5071989;28;20086;-73
2022/05/04 01:09:22;;;;;;;22.00;8.60;;;2.00;92.00;;;;;;5063010;28;20032;-72
2022/05/04 01:11:49;;;;;;;22.42;8.35;;;2.00;92.10;;;;;;5073082;28;20029;-72
2022/05/04 01:14:16;;;;;;;22.17;8.52;;;2.00;92.10;;;;;;5046749;28;20423;-72
2022/05/04 01:16:48;;;;;;;26.10;8.32;;;1.90;92.10;;;;;;5057210;28;21266;-72
2022/05/04 01:19:14;;;;;;;18.05;8.55;;;2.00;92.20;;;;;;5071704;28;20111;-72
2022/05/04 01:21:40;;;;;;;21.50;8.52;;;1.90;92.10;;;;;;5059666;28;20017;-72
2022/05/04 01:24:07;;;;;;;18.85;8.25;;;1.90;92.10;;;;;;5072255;28;20417;-73
2022/05/04 01:26:32;;;;;;;29.88;8.32;;;1.90;92.10;;;;;;5070958;28;20078;-72
2022/05/04 01:28:58;;;;;;;20.10;8.27;;;1.90;92.10;;;;;;5051996;28;20032;-73
2022/05/04 01:31:24;;;;;;;25.63;8.57;;;1.90;92.00;;;;;;5069982;28;20336;-72
2022/05/04 01:33:50;;;;;;;25.33;8.90;;;1.80;92.00;;;;;;5072163;28;20364;-72
2022/05/04 01:36:15;;;;;;;21.55;8.77;;;1.90;92.30;;;;;;5071625;28;20032;-72
2022/05/04 01:38:41;;;;;;;26.17;8.45;;;1.90;92.30;;;;;;5068941;28;20037;-72
2022/05/04 01:42:02;;;;;;;19.25;8.60;;;1.80;92.30;;;;;;5072483;28;20044;-72
2022/05/04 01:43:52;;;;;;;19.48;8.32;;;1.80;92.20;;;;;;5063193;28;20455;-72
2022/05/04 01:46:18;;;;;;;17.55;8.40;;;1.80;92.20;;;;;;5080475;28;20073;-72
2022/05/04 01:48:44;;;;;;;19.48;9.40;;;1.70;92.30;;;;;;5072332;28;20043;-72
2022/05/04 01:51:09;;;;;;;20.23;9.07;;;1.80;92.50;;;;;;5058243;28;20031;-72
2022/05/04 01:53:35;;;;;;;19.92;9.95;;;1.80;92.40;;;;;;5067825;28;20401;-72
2022/05/04 01:56:05;;;;;;;27.90;10.50;;;1.80;92.40;;;;;;5078341;28;20023;-72
2022/05/04 01:58:31;;;;;;;18.75;10.00;;;1.80;92.50;;;;;;5053431;28;20025;-73
2022/05/04 02:00:57;;;;;;;27.45;10.25;;;1.80;92.50;;;;;;5077076;28;20121;-72
2022/05/04 02:03:23;;;;;;;23.13;10.73;;;1.80;92.60;;;;;;5070800;28;20028;-72
2022/05/04 02:05:48;;;;;;;29.23;11.15;;;1.80;92.60;;;;;;5082719;28;20024;-72
2022/05/04 02:08:14;;;;;;;25.23;10.10;;;1.80;92.70;;;;;;5074973;28;20403;-73
2022/05/04 02:10:39;;;;;;;25.02;9.35;;;1.80;92.60;;;;;;5074893;28;20044;-72
2022/05/04 02:13:05;;;;;;;23.75;9.80;;;1.80;92.60;;;;;;5071552;28;20459;-72
2022/05/04 02:15:30;;;;;;;23.85;10.50;;;1.70;92.60;;;;;;5086216;28;20021;-72
2022/05/04 02:17:56;;;;;;;19.48;9.20;;;1.70;92.80;;;;;;5068079;28;20017;-72
2022/05/04 02:20:21;;;;;;;24.73;10.93;;;1.70;92.70;;;;;;5075032;28;20028;-72
2022/05/04 02:22:47;;;;;;;31.33;10.73;;;1.60;92.70;;;;;;5079381;28;20127;-72
2022/05/04 02:25:13;;;;;;;23.23;10.07;;;1.70;92.90;;;;;;5066988;28;20116;-72
2022/05/04 02:27:38;;;;;;;21.23;10.00;;;1.70;92.80;;;;;;5073773;28;20031;-72
2022/05/04 02:30:04;;;;;;;26.13;10.13;;;1.70;92.90;;;;;;5080659;28;20099;-72
2022/05/04 02:32:30;;;;;;;20.90;9.95;;;1.60;92.90;;;;;;5087476;28;20024;-70
2022/05/04 02:37:54;;;;;;;24.83;8.98;;;1.60;92.90;;;;;;5068135;28;20088;-70
2022/05/04 02:40:20;;;;;;;25.55;9.82;;;1.60;93.00;;;;;;5060551;28;20032;-70
2022/05/04 02:42:46;;;;;;;25.92;9.93;;;1.60;93.10;;;;;;5090176;28;20109;-70
2022/05/04 02:45:12;;;;;;;23.90;9.73;;;1.70;93.10;;;;;;5089734;28;20032;-70
2022/05/04 02:47:39;;;;;;;24.52;10.52;;;1.70;93.20;;;;;;5072780;28;20051;-72
2022/05/04 02:50:05;;;;;;;32.28;11.40;;;1.70;93.20;;;;;;5067445;28;20032;-72
2022/05/04 02:52:31;;;;;;;22.13;10.85;;;1.80;93.20;;;;;;5089022;28;20016;-72
2022/05/04 02:54:57;;;;;;;29.17;11.70;;;1.90;93.40;;;;;;5094402;28;20027;-72
2022/05/04 02:57:22;;;;;;;30.15;10.68;;;2.00;93.30;;;;;;5091469;28;20451;-72
2022/05/04 02:59:48;;;;;;;30.10;12.10;;;2.00;93.30;;;;;;5090682;28;21265;-72
2022/05/04 03:02:28;;;;;;;31.60;11.90;;;2.00;93.20;;;;;;5083572;28;20020;-72
2022/05/04 03:05:01;;;;;;;22.17;10.50;;;2.10;93.20;;;;;;5091277;28;20051;-72
2022/05/04 03:07:27;;;;;;;29.58;11.63;;;2.10;93.10;;;;;;5086484;28;20568;-72
2022/05/04 03:09:56;;;;;;;29.40;11.23;;;2.10;93.10;;;;;;5065395;28;20093;-71
2022/05/04 03:12:23;;;;;;;34.13;12.50;;;2.30;93.30;;;;;;5061479;28;20438;-71
2022/05/04 03:14:48;;;;;;;29.38;13.15;;;2.50;93.20;;;;;;5092721;28;20047;-70
2022/05/04 03:17:14;;;;;;;28.58;12.93;;;2.70;93.20;;;;;;5087755;28;20032;-71
2022/05/04 03:19:40;;;;;;;25.63;12.70;;;2.80;93.10;;;;;;5088451;28;20024;-70
2022/05/04 03:22:06;;;;;;;24.38;11.10;;;2.90;93.10;;;;;;5086532;28;20059;-70
2022/05/04 03:24:32;;;;;;;30.85;11.98;;;3.10;93.00;;;;;;5085431;28;20531;-71
2022/05/04 03:26:57;;;;;;;27.42;11.48;;;3.20;92.90;;;;;;5097244;28;20028;-70
2022/05/04 03:29:23;;;;;;;28.60;12.60;;;3.30;92.80;;;;;;5087865;28;20051;-71
2022/05/04 03:31:48;;;;;;;27.20;10.73;;;3.40;92.60;;;;;;5092187;28;20546;-70
2022/05/04 03:34:14;;;;;;;22.02;10.23;;;3.50;92.50;;;;;;5089441;28;20035;-70
2022/05/04 03:36:40;;;;;;;18.70;9.18;;;3.60;92.60;;;;;;5090389;28;20024;-70
2022/05/04 03:39:06;;;;;;;24.48;9.20;;;3.50;92.20;;;;;;5090824;28;20036;-70
2022/05/04 03:41:32;;;;;;;18.40;9.23;;;3.60;92.20;;;;;;5090092;28;20056;-71
2022/05/04 03:43:58;;;;;;;24.65;8.85;;;3.70;92.40;;;;;;5089072;28;20020;-71
2022/05/04 03:46:26;;;;;;;20.92;8.90;;;3.80;92.30;;;;;;5086969;28;20431;-71
2022/05/04 03:48:54;;;;;;;19.35;8.57;;;3.80;92.20;;;;;;5091822;28;20034;-71
2022/05/04 03:51:20;;;;;;;18.10;7.75;;;3.90;91.90;;;;;;5071205;28;20075;-71
2022/05/04 03:53:46;;;;;;;17.60;7.80;;;3.90;91.80;;;;;;5066600;28;20055;-71
2022/05/04 03:56:12;;;;;;;17.02;7.80;;;3.90;91.80;;;;;;5095980;28;20348;-71
2022/05/04 03:58:37;;;;;;;13.98;7.53;;;3.90;91.60;;;;;;5084579;28;20034;-71
2022/05/04 04:01:04;;;;;;;15.02;7.43;;;4.00;91.60;;;;;;5091336;28;20119;-71
2022/05/04 04:03:30;;;;;;;15.68;6.82;;;4.00;91.50;;;;;;5093051;28;20343;-71
2022/05/04 04:05:56;;;;;;;13.45;6.82;;;4.00;91.40;;;;;;5088718;28;20039;-70
2022/05/04 04:08:22;;;;;;;18.38;7.60;;;4.00;91.60;;;;;;5069736;28;20033;-70
2022/05/04 04:10:48;;;;;;;13.13;6.50;;;4.10;91.60;;;;;;5097049;28;20031;-70
2022/05/04 04:13:15;;;;;;;11.68;6.18;;;4.00;91.40;;;;;;5090497;28;20016;-70
2022/05/04 04:15:40;;;;;;;15.15;7.57;;;4.00;91.60;;;;;;5088668;28;20024;-70
2022/05/04 04:18:06;;;;;;;13.23;7.28;;;4.00;91.60;;;;;;5094400;28;20097;-68
2022/05/04 04:23:16;;;;;;;14.90;6.95;;;3.90;91.70;;;;;;5094029;28;20031;-68
2022/05/04 04:25:41;;;;;;;13.55;6.45;;;3.90;91.80;;;;;;5089792;28;20382;-68
2022/05/04 04:28:07;;;;;;;14.13;6.53;;;3.90;92.00;;;;;;5099369;28;20067;-69
2022/05/04 04:30:32;;;;;;;16.58;6.88;;;3.80;91.90;;;;;;5092914;28;20419;-69
2022/05/04 04:32:58;;;;;;;13.93;6.80;;;3.80;91.80;;;;;;5091209;28;20085;-69
2022/05/04 04:35:23;;;;;;;15.90;7.45;;;3.70;91.90;;;;;;5096685;28;20028;-69
2022/05/04 04:37:49;;;;;;;13.73;7.15;;;3.80;92.10;;;;;;5093822;28;20039;-69
2022/05/04 04:40:14;;;;;;;14.48;7.15;;;3.70;92.00;;;;;;5098303;28;20024;-69
2022/05/04 04:42:40;;;;;;;22.60;8.20;;;3.60;92.20;;;;;;5073610;28;20048;-71
2022/05/04 04:45:06;;;;;;;13.88;8.10;;;3.60;92.20;;;;;;5080638;28;20032;-71
2022/05/04 04:47:31;;;;;;;14.82;7.35;;;3.60;92.30;;;;;;5083395;28;20086;-71
2022/05/04 04:49:57;;;;;;;16.58;8.25;;;3.60;92.40;;;;;;5075980;28;20055;-71
2022/05/04 04:52:26;;;;;;;19.45;7.63;;;3.50;92.40;;;;;;5070838;28;20280;-71
2022/05/04 04:54:52;;;;;;;22.70;7.75;;;3.50;92.50;;;;;;5076921;28;20025;-71
2022/05/04 04:57:17;;;;;;;18.10;8.05;;;3.50;92.50;;;;;;5065942;28;20073;-70
2022/05/04 04:59:43;;;;;;;19.75;7.78;;;3.60;92.60;;;;;;5066721;28;20036;-69
2022/05/04 05:02:09;;;;;;;21.15;8.00;;;3.60;92.60;;;;;;5069089;28;20416;-69
2022/05/04 05:04:35;;;;;;;22.17;8.32;;;3.60;92.50;;;;;;5062528;28;20140;-69
2022/05/04 05:07:00;;;;;;;19.88;7.88;;;3.60;92.60;;;;;;5075642;28;20024;-69
2022/05/04 05:09:26;;;;;;;17.25;9.05;;;3.70;92.60;;;;;;5081368;28;20055;-69
2022/05/04 05:11:51;;;;;;;18.65;8.55;;;3.70;92.60;;;;;;5072005;28;20029;-69
2022/05/04 05:17:01;;;;;;;16.88;7.93;;;3.80;92.60;;;;;;5072263;28;20081;-70
2022/05/04 05:19:26;;;;;;;22.08;8.35;;;3.80;92.60;;;;;;5065265;28;20033;-69
2022/05/04 05:21:52;;;;;;;16.85;7.53;;;3.90;92.60;;;;;;5071667;28;20058;-69
2022/05/04 05:24:17;;;;;;;20.38;8.30;;;4.00;92.60;;;;;;5072387;28;20044;-68
2022/05/04 05:26:43;;;;;;;17.45;8.25;;;4.00;92.50;;;;;;5072704;28;20412;-69
2022/05/04 05:29:08;;;;;;;16.60;8.13;;;4.10;92.40;;;;;;5084043;28;20039;-68
2022/05/04 05:31:34;;;;;;;22.25;8.05;;;4.10;92.10;;;;;;5061183;28;20028;-69
2022/05/04 05:33:59;;;;;;;29.20;9.43;;;4.20;92.00;;;;;;5076315;28;20028;-69
2022/05/04 05:36:25;;;;;;;17.15;8.63;;;4.30;91.70;;;;;;5058500;28;20048;-69
2022/05/04 05:38:50;;;;;;;19.73;8.73;;;4.40;91.30;;;;;;5077996;28;20020;-68
2022/05/04 05:41:16;;;;;;;16.30;7.93;;;4.50;91.00;;;;;;5075234;28;20044;-70
2022/05/04 05:43:41;;;;;;;22.05;8.20;;;4.60;90.90;;;;;;5088258;28;20043;-69
2022/05/04 05:46:07;;;;;;;17.75;8.10;;;4.70;90.60;;;;;;5089373;28;20111;-69
2022/05/04 05:48:33;;;;;;;16.45;6.72;;;4.80;90.40;;;;;;5096304;28;20032;-69
2022/05/04 05:51:06;;;;;;;19.52;7.95;;;4.80;89.70;;;;;;5088570;28;20038;-69
2022/05/04 05:53:31;;;;;;;19.52;7.28;;;4.90;89.60;;;;;;5090801;28;20035;-70
2022/05/04 05:55:57;;;;;;;18.05;6.85;;;5.10;89.30;;;;;;5106052;27;20395;-70
2022/05/04 05:58:23;;;;;;;16.35;6.40;;;5.10;88.70;;;;;;5097625;28;20092;-69
2022/05/04 06:00:49;;;;;;;16.58;6.38;;;5.30;88.70;;;;;;5091800;28;20036;-69
2022/05/04 06:03:15;;;;;;;16.27;6.25;;;5.50;88.20;;;;;;5093715;28;20055;-69
2022/05/04 06:05:41;;;;;;;18.05;6.20;;;5.60;87.40;;;;;;5077300;28;20456;-69
2022/05/04 06:08:09;;;;;;;14.57;6.43;;;5.70;87.40;;;;;;5088245;28;20035;-71
2022/05/04 06:10:38;;;;;;;14.02;6.18;;;5.80;87.30;;;;;;5091906;28;20032;-71
2022/05/04 06:13:04;;;;;;;16.95;6.22;;;6.00;87.10;;;;;;5090409;28;20115;-70
2022/05/04 06:15:30;;;;;;;15.20;6.57;;;6.10;86.90;;;;;;5088201;28;20032;-69
2022/05/04 06:17:56;;;;;;;11.25;5.93;;;6.20;86.50;;;;;;5090737;28;20137;-70
2022/05/04 06:20:23;;;;;;;15.07;5.45;;;6.30;86.30;;;;;;5089728;28;20059;-69
2022/05/04 06:22:49;;;;;;;12.02;5.32;;;6.40;86.10;;;;;;5090102;28;20032;-69
2022/05/04 06:25:14;;;;;;;16.75;5.82;;;6.60;85.80;;;;;;5088321;28;20023;-69
2022/05/04 06:27:40;;;;;;;16.45;6.30;;;6.70;84.80;;;;;;5095802;28;20058;-69
2022/05/04 06:35:34;;;;;;;19.88;5.22;;;7.30;84.00;;;;;;5095239;28;20050;-70
2022/05/04 06:38:00;;;;;;;14.93;5.18;;;7.30;82.30;;;;;;5089777;28;20043;-69
2022/05/04 06:40:25;;;;;;;13.55;5.40;;;7.50;82.40;;;;;;5091394;28;20040;-69
2022/05/04 06:42:51;;;;;;;12.65;4.78;;;7.80;82.40;;;;;;5089135;28;20051;-69
2022/05/04 06:45:17;;;;;;;10.52;5.40;;;7.90;82.10;;;;;;5105460;28;20463;-69
2022/05/04 06:47:43;;;;;;;15.80;4.95;;;8.20;82.30;;;;;;5088975;28;20111;-70
2022/05/04 06:50:10;;;;;;;13.38;4.57;;;8.50;80.50;;;;;;5095006;28;20443;-69
2022/05/04 06:52:37;;;;;;;15.38;4.68;;;8.50;79.80;;;;;;5092167;28;20024;-69
2022/05/04 06:55:03;;;;;;;15.65;4.70;;;8.60;78.60;;;;;;5090009;28;20020;-69
2022/05/04 06:57:29;;;;;;;9.35;3.80;;;8.80;77.70;;;;;;5089201;28;20045;-69
2022/05/04 06:59:55;;;;;;;14.30;4.88;;;8.80;76.60;;;;;;5074948;28;20027;-69
2022/05/04 07:02:20;;;;;;;12.00;4.93;;;9.10;77.20;;;;;;5085874;28;20028;-69
2022/05/04 07:04:46;;;;;;;9.68;4.30;;;9.40;75.80;;;;;;5084861;28;20086;-69
2022/05/04 07:07:11;;;;;;;7.38;3.95;;;9.60;74.20;;;;;;5084345;28;20035;-69
2022/05/04 07:09:37;;;;;;;7.28;3.30;;;9.60;72.60;;;;;;5086237;28;20035;-69
2022/05/04 07:12:03;;;;;;;9.73;4.13;;;9.60;70.80;;;;;;5064098;28;20032;-69
2022/05/04 07:14:29;;;;;;;8.75;3.00;;;9.80;71.30;;;;;;5089683;28;20478;-70
2022/05/04 07:16:54;;;;;;;7.63;3.30;;;9.90;70.00;;;;;;5087509;28;20078;-70
2022/05/04 07:19:20;;;;;;;9.10;2.95;;;9.90;68.20;;;;;;5088652;28;20104;-69
2022/05/04 07:21:45;;;;;;;9.35;2.70;;;9.80;68.40;;;;;;5086163;28;20107;-70
2022/05/04 07:24:11;;;;;;;7.57;3.17;;;10.00;67.70;;;;;;5088021;28;20090;-69
2022/05/04 07:26:38;;;;;;;10.70;3.40;;;9.90;67.50;;;;;;5090709;28;20432;-69
2022/05/04 07:29:04;;;;;;;8.85;3.35;;;10.10;67.80;;;;;;5091493;28;20111;-69
2022/05/04 07:31:30;;;;;;;9.18;3.58;;;10.00;67.50;;;;;;5089490;28;20111;-69
2022/05/04 07:33:55;;;;;;;11.48;3.33;;;10.00;67.70;;;;;;5062250;28;20039;-69
2022/05/04 07:36:21;;;;;;;10.93;2.95;;;10.40;68.50;;;;;;5088197;28;20036;-69
2022/05/04 07:38:46;;;;;;;9.52;2.90;;;10.30;65.90;;;;;;5089985;28;20488;-69
2022/05/04 07:43:56;;;;;;;11.65;3.20;;;10.30;65.70;;;;;;5091205;28;20055;-70
2022/05/04 07:46:21;;;;;;;10.50;3.28;;;10.60;66.00;;;;;;5089820;28;20079;-69
2022/05/04 07:48:47;;;;;;;7.50;3.45;;;10.90;67.20;;;;;;5089589;28;20462;-69
2022/05/04 07:51:12;;;;;;;10.82;3.28;;;11.10;65.90;;;;;;5090978;28;20036;-70
2022/05/04 07:53:38;;;;;;;8.40;2.65;;;10.80;63.90;;;;;;5089802;28;20040;-69
2022/05/04 07:56:04;;;;;;;6.05;2.70;;;11.10;63.60;;;;;;5088749;28;20033;-70
2022/05/04 07:58:30;;;;;;;8.70;2.90;;;11.20;63.60;;;;;;5089395;28;20047;-69
2022/05/04 08:06:23;;;;;;;9.07;2.78;;;11.30;62.80;;;;;;5088031;28;20522;-69
2022/05/04 08:08:48;;;;;;;8.98;2.80;;;11.30;62.70;;;;;;5092797;28;20036;-69
2022/05/04 08:11:14;;;;;;;9.00;2.83;;;11.40;61.70;;;;;;5089775;28;20039;-69
2022/05/04 08:13:39;;;;;;;10.30;2.83;;;11.10;61.10;;;;;;5082356;28;20498;-69
2022/05/04 08:16:07;;;;;;;8.93;3.53;;;11.30;62.80;;;;;;5084741;28;20028;-69
2022/05/04 08:18:33;;;;;;;11.20;3.08;;;11.80;61.40;;;;;;5084093;28;20024;-69
2022/05/04 08:20:59;;;;;;;11.20;3.22;;;11.80;60.70;;;;;;5092003;28;20062;-70
2022/05/04 08:23:25;;;;;;;9.85;3.38;;;11.60;60.50;;;;;;5086733;28;20021;-69
2022/05/04 08:25:50;;;;;;;11.82;3.20;;;11.10;61.50;;;;;;5087877;28;20359;-69
2022/05/04 08:28:17;;;;;;;9.85;3.08;;;11.20;62.50;;;;;;5089931;28;20039;-70
2022/05/04 08:30:43;;;;;;;9.30;2.90;;;11.60;62.40;;;;;;5085113;28;20027;-72
2022/05/04 08:33:08;;;;;;;9.75;3.30;;;12.30;59.70;;;;;;5098990;28;20413;-70
2022/05/04 08:35:34;;;;;;;6.35;2.67;;;12.30;60.60;;;;;;5087855;28;20039;-71
2022/05/04 08:38:00;;;;;;;10.50;3.15;;;12.20;59.50;;;;;;5086015;28;20032;-71
2022/05/04 08:40:25;;;;;;;8.68;3.10;;;12.50;58.90;;;;;;5081679;28;20028;-70
2022/05/04 08:42:53;;;;;;;5.93;2.30;;;12.50;58.90;;;;;;5089209;28;20044;-71
2022/05/04 08:45:19;;;;;;;7.43;2.78;;;12.10;58.70;;;;;;5089574;28;20055;-71
2022/05/04 08:47:45;;;;;;;7.00;2.63;;;12.60;60.10;;;;;;5065306;28;20491;-70
2022/05/04 08:50:17;;;;;;;12.05;2.95;;;12.70;58.30;;;;;;5086140;28;20024;-70
2022/05/04 08:52:53;;;;;;;12.38;2.67;;;12.60;56.80;;;;;;5091787;28;20031;-70
2022/05/04 08:55:20;;;;;;;9.00;2.60;;;12.70;57.40;;;;;;5089592;28;20036;-71
2022/05/04 08:57:46;;;;;;;6.15;2.58;;;13.30;57.70;;;;;;5089997;28;20485;-71
2022/05/04 09:00:12;;;;;;;10.80;2.80;;;12.70;56.30;;;;;;5087240;28;20821;-71
2022/05/04 09:02:39;;;;;;;9.05;2.67;;;13.00;57.30;;;;;;5082190;28;20039;-70
2022/05/04 09:05:23;;;;;;;9.63;2.72;;;13.00;57.20;;;;;;5086790;28;20024;-70
2022/05/04 09:07:50;;;;;;;6.78;2.42;;;13.10;56.50;;;;;;5087013;28;20040;-70
2022/05/04 09:10:24;;;;;;;6.95;2.53;;;13.60;57.00;;;;;;5082134;28;20531;-70
2022/05/04 09:12:52;;;;;;;8.52;2.60;;;13.50;55.90;;;;;;5088492;28;20080;-70
2022/05/04 09:15:26;;;;;;;6.43;2.28;;;13.50;55.00;;;;;;5085694;28;20043;-69
2022/05/04 09:18:00;;;;;;;10.60;2.90;;;13.90;54.80;;;;;;5083558;28;20043;-69
2022/05/04 09:23:26;;;;;;;10.48;2.83;;;13.40;56.30;;;;;;5089416;28;20532;-69
2022/05/04 09:25:53;;;;;;;10.07;2.95;;;13.60;54.70;;;;;;5099397;28;20024;-70
2022/05/04 09:28:20;;;;;;;9.07;2.78;;;13.60;55.00;;;;;;5088025;28;20498;-70
2022/05/04 09:30:46;;;;;;;8.32;2.70;;;13.80;56.80;;;;;;5089281;28;20464;-70
2022/05/04 09:33:16;;;;;;;6.55;2.50;;;14.20;53.80;;;;;;5093358;28;20020;-69
2022/05/04 09:35:42;;;;;;;7.03;2.30;;;14.20;54.40;;;;;;5092121;28;20028;-69
2022/05/04 09:46:44;;;;;;;8.05;2.65;;;14.40;51.40;;;;;;5093121;28;20367;-70
2022/05/04 09:49:27;;;;;;;10.13;2.88;;;14.50;52.70;;;;;;5090132;28;20075;-70
2022/05/04 09:51:54;;;;;;;6.03;2.78;;;14.60;52.40;;;;;;5092522;28;20528;-70
2022/05/04 09:54:24;;;;;;;6.88;2.78;;;14.30;53.20;;;;;;5093699;28;20028;-70
2022/05/04 09:56:55;;;;;;;7.78;2.78;;;14.60;52.70;;;;;;5084701;28;20063;-70
2022/05/04 09:59:25;;;;;;;8.55;2.65;;;14.50;51.80;;;;;;5092978;28;20028;-70
2022/05/04 10:01:53;;;;;;;7.13;2.38;;;14.60;52.20;;;;;;5090453;28;20035;-70
2022/05/04 10:04:20;;;;;;;8.73;2.50;;;14.30;52.90;;;;;;5083683;28;20024;-70
2022/05/04 10:06:48;;;;;;;7.75;3.05;;;14.50;52.10;;;;;;5080648;28;20050;-70
2022/05/04 10:09:13;;;;;;;11.63;3.35;;;14.90;51.90;;;;;;5092773;28;20531;-70
2022/05/04 10:11:39;;;;;;;8.95;2.97;;;15.30;51.00;;;;;;5088066;28;20032;-70
2022/05/04 10:14:09;;;;;;;6.72;2.75;;;15.20;50.80;;;;;;5090820;28;20032;-70
2022/05/04 10:16:42;;;;;;;6.43;2.80;;;14.60;51.30;;;;;;5091925;28;20058;-70
2022/05/04 10:19:16;;;;;;;5.30;2.58;;;14.60;51.40;;;;;;5084835;28;20032;-70
2022/05/04 10:21:43;;;;;;;8.32;2.63;;;14.40;53.10;;;;;;5091366;28;20054;-70
2022/05/04 10:24:10;;;;;;;7.55;2.75;;;15.00;53.20;;;;;;5090330;28;20101;-70
2022/05/04 10:26:39;;;;;;;8.82;2.60;;;15.00;51.80;;;;;;5092231;28;20020;-70
2022/05/04 10:32:07;;;;;;;9.25;2.85;;;15.00;51.40;;;;;;5088223;28;20510;-70
2022/05/04 10:34:33;;;;;;;10.18;2.90;;;15.30;51.50;;;;;;5092539;28;20031;-70
2022/05/04 10:36:58;;;;;;;9.25;2.80;;;15.00;51.90;;;;;;5088265;28;20181;-70
2022/05/04 10:39:24;;;;;;;8.52;2.55;;;15.60;50.00;;;;;;5087763;28;20043;-70
2022/05/04 10:41:50;;;;;;;7.97;2.92;;;15.40;50.40;;;;;;5087172;28;20067;-70
2022/05/04 10:44:17;;;;;;;5.53;2.50;;;15.90;50.80;;;;;;5092369;28;20047;-70
2022/05/04 10:46:46;;;;;;;9.15;2.97;;;16.00;48.90;;;;;;5083898;28;20033;-70
2022/05/04 10:49:14;;;;;;;7.70;2.88;;;16.00;48.60;;;;;;5089871;28;20037;-70
2022/05/04 10:51:42;;;;;;;8.77;2.60;;;16.50;47.80;;;;;;5090561;28;20024;-71
2022/05/04 10:54:21;;;;;;;5.65;2.58;;;16.40;48.60;;;;;;5088846;28;20042;-70
2022/05/04 10:56:52;;;;;;;7.38;2.97;;;15.90;49.60;;;;;;5082216;28;20082;-71
2022/05/04 10:59:24;;;;;;;10.43;2.72;;;16.50;48.60;;;;;;5092113;28;20073;-71
2022/05/04 11:01:49;;;;;;;9.63;3.47;;;15.80;48.40;;;;;;5089850;28;20052;-71
2022/05/04 11:04:22;;;;;;;7.70;3.28;;;16.10;48.70;;;;;;5085793;28;20509;-71
2022/05/04 11:06:58;;;;;;;6.47;3.28;;;16.60;47.00;;;;;;5089879;28;20032;-71
2022/05/04 11:09:37;;;;;;;5.97;2.47;;;17.00;47.00;;;;;;5092152;28;20536;-71
2022/05/04 11:12:10;;;;;;;6.65;2.65;;;16.50;48.20;;;;;;5090590;28;20036;-71
2022/05/04 11:14:36;;;;;;;6.93;2.55;;;16.60;47.80;;;;;;5088242;28;20030;-71
2022/05/04 11:17:09;;;;;;;8.65;2.80;;;16.40;47.10;;;;;;5090344;28;20036;-71
2022/05/04 11:19:42;;;;;;;9.02;2.88;;;16.10;49.20;;;;;;5091471;28;20031;-71
2022/05/04 11:22:08;;;;;;;7.45;2.60;;;16.30;48.90;;;;;;5070047;28;20503;-71
2022/05/04 11:24:34;;;;;;;8.10;2.85;;;15.70;50.00;;;;;;5091505;28;20028;-71
2022/05/04 11:26:59;;;;;;;13.52;3.40;;;15.50;49.10;;;;;;5090698;28;20035;-71
2022/05/04 11:29:27;;;;;;;8.88;2.95;;;15.50;49.70;;;;;;5091806;28;20040;-71
2022/05/04 11:31:58;;;;;;;6.13;3.08;;;15.80;50.50;;;;;;5090673;28;20070;-71
2022/05/04 11:34:35;;;;;;;7.40;3.08;;;15.50;50.20;;;;;;5090365;28;20036;-71
2022/05/04 11:37:10;;;;;;;7.93;2.92;;;15.50;50.40;;;;;;5085970;28;20035;-71
2022/05/04 11:39:37;;;;;;;11.73;3.42;;;15.10;51.60;;;;;;5082099;28;20032;-71
2022/05/04 11:42:05;;;;;;;8.93;3.40;;;15.20;51.10;;;;;;5091585;28;20117;-70
2022/05/04 11:44:31;;;;;;;8.40;2.97;;;15.50;51.00;;;;;;5091222;28;20386;-72
2022/05/04 11:46:58;;;;;;;11.23;2.75;;;15.70;51.10;;;;;;5089055;28;20035;-71
2022/05/04 11:49:25;;;;;;;9.07;2.97;;;15.80;49.20;;;;;;5085432;28;20039;-74
2022/05/04 11:51:52;;;;;;;8.75;3.00;;;16.30;49.50;;;;;;5090310;28;20518;-72
2022/05/04 11:54:18;;;;;;;9.73;3.20;;;17.00;49.40;;;;;;5090224;28;20498;-72
2022/05/04 11:56:44;;;;;;;6.13;2.78;;;17.50;47.90;;;;;;5091383;28;20020;-72
2022/05/04 11:59:10;;;;;;;6.13;3.10;;;17.80;45.50;;;;;;5091144;28;20028;-72
2022/05/04 12:01:37;;;;;;;9.07;2.97;;;18.10;44.70;;;;;;5086540;28;20460;-72
2022/05/04 12:04:03;;;;;;;7.07;2.50;;;18.00;45.00;;;;;;5084111;28;20057;-72
2022/05/04 12:06:31;;;;;;;5.88;2.92;;;18.90;44.00;;;;;;5090399;28;20466;-70
2022/05/04 12:08:56;;;;;;;8.43;2.55;;;18.10;44.30;;;;;;5089693;28;20030;-70
2022/05/04 12:11:25;;;;;;;9.35;2.63;;;17.40;45.70;;;;;;5085033;28;20044;-69
2022/05/04 12:13:52;;;;;;;8.25;2.95;;;16.70;47.20;;;;;;5086347;28;20470;-69
2022/05/04 12:16:18;;;;;;;9.13;3.05;;;16.30;47.20;;;;;;5090948;28;20128;-70
2022/05/04 12:18:44;;;;;;;8.45;3.90;;;16.20;47.70;;;;;;5087160;28;20566;-70
2022/05/04 12:21:12;;;;;;;5.60;2.97;;;16.00;49.10;;;;;;5081956;28;20036;-71
2022/05/04 12:23:41;;;;;;;7.30;2.95;;;16.20;46.80;;;;;;5087234;28;20247;-74
2022/05/04 12:26:08;;;;;;;10.15;3.40;;;16.30;47.10;;;;;;5089799;28;20482;-71
2022/05/04 12:28:34;;;;;;;9.90;2.70;;;16.50;47.30;;;;;;5083435;28;20036;-71
2022/05/04 12:33:44;;;;;;;8.85;2.83;;;16.80;47.10;;;;;;5070321;28;20031;-71
2022/05/04 12:36:12;;;;;;;8.07;2.92;;;16.90;46.50;;;;;;5089382;28;20394;-71
2022/05/04 12:38:39;;;;;;;6.72;2.65;;;17.50;45.10;;;;;;5082299;28;20525;-71
2022/05/04 12:41:07;;;;;;;6.18;2.67;;;19.00;44.60;;;;;;5087344;28;20513;-71
2022/05/04 12:43:35;;;;;;;5.35;2.42;;;19.10;41.70;;;;;;5087906;28;20039;-71
2022/05/04 12:46:01;;;;;;;5.82;2.50;;;19.00;42.10;;;;;;5082118;28;20024;-72
2022/05/04 12:48:27;;;;;;;7.20;2.75;;;18.30;43.50;;;;;;5091972;28;20036;-72
2022/05/04 12:50:55;;;;;;;6.10;2.47;;;17.80;43.30;;;;;;5091871;28;20489;-71
2022/05/04 12:53:21;;;;;;;7.43;2.50;;;16.80;45.50;;;;;;5085078;28;20056;-71
2022/05/04 12:58:31;;;;;;;7.22;2.97;;;16.70;46.90;;;;;;5090298;28;20463;-71
2022/05/04 13:00:57;;;;;;;5.43;2.30;;;16.30;47.00;;;;;;5087682;28;20638;-71
2022/05/04 13:03:22;;;;;;;7.63;2.88;;;16.70;46.50;;;;;;5081838;28;20056;-71
2022/05/04 13:05:48;;;;;;;16.00;3.20;;;16.80;45.80;;;;;;5088154;28;20328;-72
2022/05/04 13:08:13;;;;;;;9.07;2.70;;;17.40;45.90;;;;;;5088655;28;20532;-72
2022/05/04 13:10:40;;;;;;;8.52;2.80;;;17.80;45.00;;;;;;5092152;28;20040;-72
2022/05/04 13:13:05;;;;;;;6.88;2.83;;;17.50;44.50;;;;;;5083767;28;20028;-72
2022/05/04 13:15:32;;;;;;;8.45;3.15;;;17.80;44.50;;;;;;5091675;28;20468;-72
2022/05/04 13:17:57;;;;;;;5.45;2.38;;;17.80;43.90;;;;;;5091840;28;20024;-72
2022/05/04 13:20:23;;;;;;;6.18;2.92;;;18.10;44.70;;;;;;5086437;28;20028;-72
2022/05/04 13:22:49;;;;;;;6.82;3.00;;;18.60;42.80;;;;;;5090023;28;20024;-72
2022/05/04 13:25:16;;;;;;;10.48;3.30;;;18.80;42.80;;;;;;5090134;28;20390;-72